createdAt,value
2019-01-05T00:00:19.097Z,100296.83
2019-01-05T00:03:13.245Z,100292.38
2019-01-05T00:05:58.069Z,100293.37
2019-01-05T00:08:44.282Z,100295.49
2019-01-05T00:11:32.736Z,100282.87
2019-01-05T00:14:27.762Z,100273.36
2019-01-05T00:17:16.337Z,100278.16
2019-01-05T00:20:28.473Z,100265.09
2019-01-05T00:23:19.525Z,100276.59
2019-01-05T00:26:13.272Z,100262.77
2019-01-05T00:29:02.956Z,100268.16
2019-01-05T00:32:00.383Z,100266.61
2019-01-05T00:34:53.606Z,100261.81
2019-01-05T00:37:41.155Z,100263.50
2019-01-05T00:40:28.453Z,100255.28
2019-01-05T00:43:07.628Z,100255.32
2019-01-05T00:46:07.236Z,100259.34
2019-01-05T00:48:55.507Z,100267.99
2019-01-05T00:51:44.677Z,100275.17
2019-01-05T00:54:32.443Z,100260.81
2019-01-05T00:57:29.998Z,100269.47
2019-01-05T01:00:19.664Z,100273.27
2019-01-05T01:03:13.462Z,100275.17
2019-01-05T01:05:54.161Z,100269.94
2019-01-05T01:08:49.698Z,100264.66
2019-01-05T01:11:40.886Z,100262.11
2019-01-05T01:14:27.918Z,100275.13
2019-01-05T01:17:14.847Z,100268.94
2019-01-05T01:20:21.100Z,100279.72
2019-01-05T01:23:09.612Z,100277.03
2019-01-05T01:26:01.670Z,100274.05
2019-01-05T01:28:48.720Z,100265.83
2019-01-05T01:31:42.949Z,100263.97
2019-01-05T01:34:40.390Z,100271.70
2019-01-05T01:37:28.476Z,100270.53
2019-01-05T01:40:22.498Z,100272.66
2019-01-05T01:43:09.222Z,100266.22
2019-01-05T01:45:55.670Z,100269.63
2019-01-05T01:48:43.786Z,100266.70
2019-01-05T01:51:31.674Z,100263.70
2019-01-05T01:54:18.102Z,100260.41
2019-01-05T01:57:04.593Z,100265.30
2019-01-05T02:00:26.528Z,100262.27
2019-01-05T02:03:19.267Z,100263.58
2019-01-05T02:06:14.279Z,100263.40
2019-01-05T02:09:14.547Z,100264.70
2019-01-05T02:12:05.127Z,100269.06
2019-01-05T02:14:53.961Z,100260.55
2019-01-05T02:17:54.702Z,100258.20
2019-01-05T02:21:12.665Z,100253.24
2019-01-05T02:24:25.893Z,100260.20
2019-01-05T02:28:00.049Z,100254.31
2019-01-05T02:31:05.720Z,100249.64
2019-01-05T02:34:39.463Z,100250.16
2019-01-05T02:37:58.884Z,100239.20
2019-01-05T02:41:11.975Z,100231.66
2019-01-05T02:44:40.432Z,100223.86
2019-01-05T02:48:22.432Z,100230.92
2019-01-05T02:51:45.999Z,100222.80
2019-01-05T02:55:03.041Z,100216.83
2019-01-05T02:58:33.888Z,100215.19
2019-01-05T03:02:13.721Z,100200.63
2019-01-05T03:05:33.788Z,100202.27
2019-01-05T03:08:53.176Z,100195.09
2019-01-05T03:12:29.542Z,100186.14
2019-01-05T03:16:01.021Z,100181.39
2019-01-05T03:19:42.926Z,100167.77
2019-01-05T03:23:14.793Z,100171.06
2019-01-05T03:27:06.875Z,100157.70
2019-01-05T03:30:59.038Z,100148.19
2019-01-05T03:34:14.846Z,100146.59
2019-01-05T03:37:37.730Z,100139.68
2019-01-05T03:41:19.375Z,100136.65
2019-01-05T03:44:47.049Z,100133.97
2019-01-05T03:48:24.509Z,100121.48
2019-01-05T03:51:34.988Z,100111.54
2019-01-05T03:55:14.118Z,100116.25
2019-01-05T03:58:49.653Z,100112.26
2019-01-05T04:02:19.921Z,100102.75
2019-01-05T04:05:32.845Z,100102.07
2019-01-05T04:08:47.580Z,100102.07
2019-01-05T04:12:24.103Z,100091.45
2019-01-05T04:15:49.779Z,100105.47
2019-01-05T04:19:20.420Z,100110.70
2019-01-05T04:23:16.696Z,100109.97
2019-01-05T04:26:57.021Z,100107.72
2019-01-05T04:30:04.465Z,100101.23
2019-01-05T04:33:45.852Z,100090.87
2019-01-05T04:36:41.408Z,100098.39
2019-01-05T04:39:57.352Z,100092.33
2019-01-05T04:43:21.994Z,100086.33
2019-01-05T04:47:11.294Z,100086.38
2019-01-05T04:50:40.107Z,100089.10
2019-01-05T04:54:29.306Z,100079.30
2019-01-05T04:57:52.635Z,100071.57
2019-01-05T05:01:31.103Z,100070.80
2019-01-05T05:04:48.690Z,100067.82
2019-01-05T05:08:37.955Z,100063.02
2019-01-05T05:11:50.685Z,100048.25
2019-01-05T05:15:25.391Z,100045.23
2019-01-05T05:18:57.644Z,100049.59
2019-01-05T05:22:19.320Z,100049.06
2019-01-05T05:25:46.837Z,100046.09
2019-01-05T05:29:19.789Z,100043.12
2019-01-05T05:32:50.205Z,100034.39
2019-01-05T05:36:07.283Z,100033.00
2019-01-05T05:39:31.677Z,100023.84
2019-01-05T05:42:59.344Z,100024.66
2019-01-05T05:46:11.675Z,100024.75
2019-01-05T05:49:39.611Z,100009.50
2019-01-05T05:53:10.326Z,100028.25
2019-01-05T05:56:22.349Z,100017.89
2019-01-05T06:00:12.372Z,100010.64
2019-01-05T06:03:40.573Z,100004.20
2019-01-05T06:07:33.945Z,100002.48
2019-01-05T06:11:18.012Z,100004.20
2019-01-05T06:14:34.122Z,100003.38
2019-01-05T06:18:14.320Z,99992.34
2019-01-05T06:22:06.807Z,99992.68
2019-01-05T06:25:33.751Z,99992.89
2019-01-05T06:29:22.001Z,99998.20
2019-01-05T06:32:46.629Z,100003.77
2019-01-05T06:36:30.937Z,100004.21
2019-01-05T06:39:52.877Z,99996.56
2019-01-05T06:43:18.909Z,99983.95
2019-01-05T06:46:57.653Z,99986.68
2019-01-05T06:50:37.414Z,99984.48
2019-01-05T06:54:01.920Z,99973.94
2019-01-05T06:57:32.333Z,99974.02
2019-01-05T07:01:06.001Z,99971.34
2019-01-05T07:04:35.539Z,99966.98
2019-01-05T07:08:06.820Z,99973.55
2019-01-05T07:11:33.862Z,99977.47
2019-01-05T07:14:58.676Z,99966.73
2019-01-05T07:18:21.894Z,99981.55
2019-01-05T07:21:45.180Z,99978.34
2019-01-05T07:24:50.508Z,99977.70
2019-01-05T07:28:39.594Z,99976.02
2019-01-05T07:31:49.363Z,99955.73
2019-01-05T07:34:59.747Z,99962.16
2019-01-05T07:38:21.397Z,99965.52
2019-01-05T07:42:11.011Z,99955.98
2019-01-05T07:45:33.194Z,99960.68
2019-01-05T07:49:09.634Z,99960.36
2019-01-05T07:52:34.168Z,99956.91
2019-01-05T07:56:04.463Z,99944.24
2019-01-05T07:59:21.965Z,99943.72
2019-01-05T08:02:38.570Z,99945.88
2019-01-05T08:06:16.012Z,99958.92
2019-01-05T08:09:46.129Z,99950.95
2019-01-05T08:13:12.560Z,99951.44
2019-01-05T08:16:50.834Z,99946.40
2019-01-05T08:20:37.167Z,99941.65
2019-01-05T08:24:16.808Z,99940.64
2019-01-05T08:28:13.074Z,99942.13
2019-01-05T08:31:35.703Z,99943.52
2019-01-05T08:35:00.211Z,99925.19
2019-01-05T08:38:30.072Z,99921.39
2019-01-05T08:41:56.677Z,99935.70
2019-01-05T08:45:43.479Z,99934.73
2019-01-05T08:49:19.804Z,99942.13
2019-01-05T08:52:16.503Z,99933.53
2019-01-05T08:56:04.958Z,99932.91
2019-01-05T09:00:13.633Z,99926.00
2019-01-05T09:03:26.727Z,99922.98
2019-01-05T09:07:08.284Z,99915.72
2019-01-05T09:11:01.377Z,99914.25
2019-01-05T09:14:28.113Z,99913.72
2019-01-05T09:18:13.740Z,99916.64
2019-01-05T09:22:02.730Z,99911.34
2019-01-05T09:25:26.558Z,99917.20
2019-01-05T09:28:32.378Z,99913.59
2019-01-05T09:32:11.532Z,99921.47
2019-01-05T09:35:47.034Z,99917.48
2019-01-05T09:39:12.041Z,99902.20
2019-01-05T09:42:38.209Z,99895.34
2019-01-05T09:46:20.634Z,99885.90
2019-01-05T09:49:44.810Z,99879.73
2019-01-05T09:53:22.836Z,99870.87
2019-01-05T09:57:01.533Z,99879.47
2019-01-05T10:00:31.667Z,99877.25
2019-01-05T10:03:58.584Z,99863.69
2019-01-05T10:07:21.282Z,99863.61
2019-01-05T10:11:01.383Z,99870.05
2019-01-05T10:14:18.789Z,99870.61
2019-01-05T10:18:14.010Z,99855.91
2019-01-05T10:21:44.701Z,99864.70
2019-01-05T10:25:11.197Z,99865.25
2019-01-05T10:28:47.325Z,99874.70
2019-01-05T10:32:11.743Z,99862.92
2019-01-05T10:35:51.745Z,99882.88
2019-01-05T10:39:21.996Z,99876.88
2019-01-05T10:42:42.289Z,99866.74
2019-01-05T10:46:11.207Z,99873.70
2019-01-05T10:49:42.149Z,99879.51
2019-01-05T10:52:45.880Z,99872.84
2019-01-05T10:56:21.621Z,99872.95
2019-01-05T10:59:57.635Z,99871.55
2019-01-05T11:03:27.979Z,99874.09
2019-01-05T11:07:03.122Z,99867.53
2019-01-05T11:11:02.768Z,99862.28
2019-01-05T11:14:23.383Z,99855.30
2019-01-05T11:17:35.273Z,99851.74
2019-01-05T11:20:54.185Z,99853.04
2019-01-05T11:24:13.182Z,99837.47
2019-01-05T11:27:35.954Z,99831.70
2019-01-05T11:31:12.088Z,99831.98
2019-01-05T11:34:59.617Z,99829.86
2019-01-05T11:38:33.297Z,99829.49
2019-01-05T11:42:07.483Z,99820.30
2019-01-05T11:45:27.975Z,99810.22
2019-01-05T11:48:35.064Z,99818.81
2019-01-05T11:52:25.894Z,99833.33
2019-01-05T11:55:58.345Z,99832.45
2019-01-05T11:59:38.589Z,99832.64
2019-01-05T12:03:16.030Z,99838.69
2019-01-05T12:06:43.132Z,99838.63
2019-01-05T12:10:11.464Z,99832.77
2019-01-05T12:13:31.188Z,99822.21
2019-01-05T12:16:55.776Z,99830.05
2019-01-05T12:20:37.187Z,99827.95
2019-01-05T12:24:15.249Z,99822.71
2019-01-05T12:27:40.826Z,99822.71
2019-01-05T12:30:54.272Z,99805.89
2019-01-05T12:34:11.218Z,99803.73
2019-01-05T12:37:30.816Z,99802.10
2019-01-05T12:40:57.603Z,99815.36
2019-01-05T12:44:31.368Z,99823.13
2019-01-05T12:48:13.903Z,99814.78
2019-01-05T12:51:37.761Z,99820.67
2019-01-05T12:54:54.781Z,99814.17
2019-01-05T12:58:21.128Z,99810.91
2019-01-05T13:01:49.599Z,99808.55
2019-01-05T13:05:06.985Z,99814.91
2019-01-05T13:08:26.888Z,99812.25
2019-01-05T13:11:52.364Z,99814.15
2019-01-05T13:15:34.236Z,99808.27
2019-01-05T13:19:20.250Z,99803.87
2019-01-05T13:22:41.282Z,99805.67
2019-01-05T13:26:08.760Z,99818.47
2019-01-05T13:29:21.979Z,99820.33
2019-01-05T13:32:58.247Z,99821.19
2019-01-05T13:36:38.053Z,99824.37
2019-01-05T13:40:06.594Z,99827.83
2019-01-05T13:43:39.584Z,99827.14
2019-01-05T13:47:18.601Z,99821.45
2019-01-05T13:50:30.758Z,99821.45
2019-01-05T13:53:58.858Z,99815.77
2019-01-05T13:56:58.310Z,99818.91
2019-01-05T13:59:52.358Z,99822.31
2019-01-05T14:02:39.982Z,99825.33
2019-01-05T14:05:26.590Z,99827.13
2019-01-05T14:08:13.273Z,99829.61
2019-01-05T14:11:02.015Z,99830.20
2019-01-05T14:13:48.773Z,99826.68
2019-01-05T14:16:35.477Z,99832.30
2019-01-05T14:19:23.375Z,99833.66
2019-01-05T14:22:11.617Z,99823.88
2019-01-05T14:25:01.046Z,99823.49
2019-01-05T14:27:49.030Z,99832.35
2019-01-05T14:30:39.854Z,99826.48
2019-01-05T14:33:26.501Z,99835.69
2019-01-05T14:36:15.100Z,99816.66
2019-01-05T14:39:15.770Z,99820.06
2019-01-05T14:41:59.913Z,99819.38
2019-01-05T14:44:57.136Z,99826.29
2019-01-05T14:47:44.118Z,99834.33
2019-01-05T14:50:30.751Z,99830.74
2019-01-05T14:53:17.253Z,99835.09
2019-01-05T14:56:00.979Z,99837.19
2019-01-05T14:58:47.494Z,99840.20
2019-01-05T15:01:48.428Z,99842.86
2019-01-05T15:04:48.666Z,99848.09
2019-01-05T15:07:25.520Z,99842.36
2019-01-05T15:10:16.533Z,99844.96
2019-01-05T15:12:56.026Z,99846.08
2019-01-05T15:15:49.883Z,99846.02
2019-01-05T15:18:34.872Z,99846.58
2019-01-05T15:21:15.200Z,99841.79
2019-01-05T15:24:01.727Z,99835.38
2019-01-05T15:26:48.285Z,99833.48
2019-01-05T15:29:36.222Z,99838.56
2019-01-05T15:32:39.252Z,99840.48
2019-01-05T15:35:30.025Z,99836.59
2019-01-05T15:38:18.704Z,99837.41
2019-01-05T15:41:06.553Z,99844.77
2019-01-05T15:44:00.570Z,99849.59
2019-01-05T15:46:57.481Z,99846.42
2019-01-05T15:49:44.329Z,99847.79
2019-01-05T15:52:26.750Z,99849.69
2019-01-05T15:55:11.960Z,99857.99
2019-01-05T15:58:08.937Z,99851.17
2019-01-05T16:00:55.549Z,99857.25
2019-01-05T16:03:43.569Z,99861.52
2019-01-05T16:06:43.596Z,99855.39
2019-01-05T16:09:34.431Z,99861.16
2019-01-05T16:12:21.258Z,99873.16
2019-01-05T16:15:04.295Z,99872.27
2019-01-05T16:17:50.764Z,99876.11
2019-01-05T16:20:37.331Z,99881.70
2019-01-05T16:23:24.156Z,99880.02
2019-01-05T16:26:12.521Z,99883.00
2019-01-05T16:29:02.909Z,99883.00
2019-01-05T16:31:50.821Z,99894.27
2019-01-05T16:34:37.205Z,99889.05
2019-01-05T16:37:23.770Z,99884.09
2019-01-05T16:40:18.713Z,99888.55
2019-01-05T16:43:11.276Z,99889.05
2019-01-05T16:45:54.831Z,99889.12
2019-01-05T16:48:41.332Z,99888.11
2019-01-05T16:51:28.132Z,99893.07
2019-01-05T16:54:15.182Z,99895.17
2019-01-05T16:57:01.962Z,99895.97
2019-01-05T17:00:08.329Z,99889.08
2019-01-05T17:02:54.866Z,99890.83
2019-01-05T17:05:41.783Z,99889.63
2019-01-05T17:08:28.388Z,99886.14
2019-01-05T17:11:16.216Z,99878.72
2019-01-05T17:14:19.540Z,99872.69
2019-01-05T17:17:16.682Z,99869.77
2019-01-05T17:19:54.451Z,99866.91
2019-01-05T17:22:41.500Z,99866.86
2019-01-05T17:25:44.421Z,99867.52
2019-01-05T17:28:45.425Z,99857.62
2019-01-05T17:31:31.913Z,99857.33
2019-01-05T17:34:19.833Z,99867.39
2019-01-05T17:37:06.363Z,99868.70
2019-01-05T17:39:53.267Z,99880.13
2019-01-05T17:42:53.352Z,99876.73
2019-01-05T17:45:34.646Z,99879.81
2019-01-05T17:48:31.914Z,99888.56
2019-01-05T17:51:20.991Z,99887.39
2019-01-05T17:54:07.995Z,99887.68
2019-01-05T17:56:53.198Z,99887.27
2019-01-05T17:59:34.077Z,99875.43
2019-01-05T18:02:21.893Z,99881.84
2019-01-05T18:05:12.429Z,99874.89
2019-01-05T18:08:03.501Z,99876.86
2019-01-05T18:11:00.271Z,99880.83
2019-01-05T18:13:48.124Z,99878.61
2019-01-05T18:16:46.979Z,99874.77
2019-01-05T18:19:28.677Z,99888.89
2019-01-05T18:22:15.407Z,99892.03
2019-01-05T18:25:09.471Z,99889.47
2019-01-05T18:28:06.346Z,99889.47
2019-01-05T18:30:49.658Z,99896.39
2019-01-05T18:33:28.345Z,99890.77
2019-01-05T18:36:09.316Z,99892.00
2019-01-05T18:39:03.445Z,99900.23
2019-01-05T18:41:51.032Z,99891.63
2019-01-05T18:44:32.288Z,99886.52
2019-01-05T18:47:18.770Z,99884.70
2019-01-05T18:49:59.744Z,99885.78
2019-01-05T18:52:51.186Z,99886.22
2019-01-05T18:55:36.890Z,99877.97
2019-01-05T18:58:39.798Z,99878.31
2019-01-05T19:01:26.584Z,99877.91
2019-01-05T19:04:26.846Z,99885.20
2019-01-05T19:07:13.563Z,99881.81
2019-01-05T19:09:52.863Z,99880.00
2019-01-05T19:12:37.286Z,99885.11
2019-01-05T19:15:37.603Z,99888.16
2019-01-05T19:18:20.106Z,99887.14
2019-01-05T19:21:07.882Z,99879.90
2019-01-05T19:23:58.308Z,99892.86
2019-01-05T19:26:48.957Z,99891.63
2019-01-05T19:29:45.775Z,99890.70
2019-01-05T19:32:36.771Z,99888.03
2019-01-05T19:35:19.980Z,99892.52
2019-01-05T19:38:07.943Z,99899.59
2019-01-05T19:40:54.683Z,99903.72
2019-01-05T19:43:41.104Z,99906.61
2019-01-05T19:46:42.806Z,99901.11
2019-01-05T19:49:25.127Z,99907.28
2019-01-05T19:52:25.031Z,99908.27
2019-01-05T19:55:11.478Z,99893.87
2019-01-05T19:57:58.245Z,99894.32
2019-01-05T20:00:58.201Z,99896.83
2019-01-05T20:03:49.202Z,99899.15
2019-01-05T20:06:49.492Z,99900.10
2019-01-05T20:09:36.172Z,99895.88
2019-01-05T20:12:36.481Z,99904.36
2019-01-05T20:15:27.944Z,99891.27
2019-01-05T20:18:18.580Z,99891.27
2019-01-05T20:21:14.777Z,99888.45
2019-01-05T20:24:11.706Z,99889.02
2019-01-05T20:26:58.499Z,99882.38
2019-01-05T20:29:58.660Z,99871.68
2019-01-05T20:32:42.928Z,99875.14
2019-01-05T20:35:29.622Z,99876.80
2019-01-05T20:38:16.142Z,99869.77
2019-01-05T20:41:20.816Z,99873.62
2019-01-05T20:44:08.623Z,99874.85
2019-01-05T20:46:59.223Z,99873.20
2019-01-05T20:49:59.346Z,99873.20
2019-01-05T20:52:45.926Z,99884.67
2019-01-05T20:55:48.913Z,99876.28
2019-01-05T20:58:35.466Z,99876.22
2019-01-05T21:01:27.658Z,99879.78
2019-01-05T21:04:14.601Z,99883.69
2019-01-05T21:07:08.469Z,99889.24
2019-01-05T21:09:59.025Z,99862.41
2019-01-05T21:12:52.105Z,99880.70
2019-01-05T21:15:38.959Z,99887.52
2019-01-05T21:18:39.897Z,99883.62
2019-01-05T21:21:23.020Z,99883.75
2019-01-05T21:24:16.633Z,99885.40
2019-01-05T21:27:03.077Z,99888.89
2019-01-05T21:29:50.857Z,99889.69
2019-01-05T21:32:36.587Z,99894.95
2019-01-05T21:35:18.462Z,99900.67
2019-01-05T21:38:05.132Z,99897.56
2019-01-05T21:40:51.518Z,99897.18
2019-01-05T21:43:32.299Z,99904.08
2019-01-05T21:46:15.948Z,99911.88
2019-01-05T21:49:03.774Z,99907.13
2019-01-05T21:51:50.288Z,99910.07
2019-01-05T21:54:56.413Z,99914.77
2019-01-05T21:58:02.784Z,99911.72
2019-01-05T22:02:56.388Z,99899.53
2019-01-05T22:05:43.136Z,99917.09
2019-01-05T22:08:30.097Z,99914.42
2019-01-05T22:11:29.190Z,99916.58
2019-01-05T22:14:15.714Z,99923.89
2019-01-05T22:17:02.268Z,99911.19
2019-01-05T22:20:08.249Z,99918.27
2019-01-05T22:22:54.535Z,99921.28
2019-01-05T22:25:42.416Z,99925.57
2019-01-05T22:28:49.176Z,99922.52
2019-01-05T22:31:42.436Z,99931.26
2019-01-05T22:34:29.635Z,99929.09
2019-01-05T22:37:22.164Z,99932.59
2019-01-05T22:40:09.987Z,99929.61
2019-01-05T22:43:10.877Z,99920.88
2019-01-05T22:45:58.760Z,99927.13
2019-01-05T22:48:55.675Z,99921.00
2019-01-05T22:51:42.201Z,99923.76
2019-01-05T22:54:28.669Z,99917.25
2019-01-05T22:57:15.466Z,99915.92
2019-01-05T23:00:20.815Z,99921.44
2019-01-05T23:03:12.654Z,99918.77
2019-01-05T23:05:58.542Z,99917.53
2019-01-05T23:08:45.196Z,99922.36
2019-01-05T23:11:33.324Z,99912.83
2019-01-05T23:14:19.026Z,99917.73
2019-01-05T23:17:12.781Z,99915.56
2019-01-05T23:20:00.614Z,99912.96
2019-01-05T23:22:51.630Z,99912.90
2019-01-05T23:25:31.447Z,99913.03
2019-01-05T23:28:14.382Z,99906.52
2019-01-05T23:31:01.425Z,99906.58
2019-01-05T23:33:45.679Z,99895.69
2019-01-05T23:36:36.875Z,99901.02
2019-01-05T23:39:24.396Z,99892.92
2019-01-05T23:42:11.114Z,99886.64
2019-01-05T23:45:02.030Z,99866.25
2019-01-05T23:47:49.933Z,99880.35
2019-01-05T23:50:32.565Z,99880.77
2019-01-05T23:53:14.969Z,99894.67
2019-01-05T23:56:06.351Z,99905.94
2019-01-05T23:59:01.753Z,99896.89
